Palo Cedro, California
Current Conditions -  °F | °C
As of 5:53 AM on Monday 20 Oct 2014 (Local Time) from KRDD Reporting Station
Broken Clouds Broken Clouds  
Wind Chill: 56°   Ceiling: 9000
Heat Index: 56°   Visibility: 10mi
Dew Point: 52°   Wind: 3mph
Humidity: 87%   Direction: 90°E
Pressure: 29.83"   Gusts: NA
Location:  40.56°N, 122.24°W
Report Text: KRDD 201253Z AUTO 09003KT 10SM BKN090 13/11 A2983 RMK AO2 SLP097 T01330111
Loading
Personal Weather Stations






























Interactive Weather Map
Tropical Storm Tracking
New forecast layout! Learn more

10-Day Weather Forecast

Advertisements
Track Severe Weather on mobile